createdAt,value
2022-11-16T00:01:26.773Z,97.95
2022-11-16T00:03:54.557Z,98.01
2022-11-16T00:06:21.995Z,98.06
2022-11-16T00:09:11.596Z,98.09
2022-11-16T00:11:38.453Z,98.04
2022-11-16T00:14:05.583Z,98.11
2022-11-16T00:16:32.828Z,97.99
2022-11-16T00:19:02.842Z,97.98
2022-11-16T00:21:30.353Z,97.98
2022-11-16T00:23:57.042Z,97.98
2022-11-16T00:26:24.155Z,98.00
2022-11-16T00:28:52.565Z,97.97
2022-11-16T00:31:19.063Z,97.91
2022-11-16T00:33:45.608Z,98.01
2022-11-16T00:36:13.386Z,98.06
2022-11-16T00:38:41.228Z,98.15
2022-11-16T00:41:08.975Z,98.10
2022-11-16T00:43:36.553Z,98.13
2022-11-16T00:46:03.781Z,98.21
2022-11-16T00:48:30.563Z,98.24
2022-11-16T00:50:57.177Z,98.08
2022-11-16T00:53:23.683Z,98.08
2022-11-16T00:55:50.169Z,98.19
2022-11-16T01:01:39.724Z,98.27
2022-11-16T01:04:06.404Z,98.20
2022-11-16T01:06:32.977Z,98.27
2022-11-16T01:09:00.608Z,98.27
2022-11-16T01:11:45.482Z,98.35
2022-11-16T01:14:12.289Z,98.28
2022-11-16T01:16:38.998Z,98.38
2022-11-16T01:19:06.080Z,98.38
2022-11-16T01:21:33.150Z,98.48
2022-11-16T01:23:59.693Z,98.53
2022-11-16T01:26:26.255Z,98.52
2022-11-16T01:28:53.349Z,98.66
2022-11-16T01:31:20.417Z,98.71
2022-11-16T01:33:46.897Z,98.73
2022-11-16T01:36:14.999Z,98.70
2022-11-16T01:38:43.708Z,98.82
2022-11-16T01:41:17.518Z,98.81
2022-11-16T01:43:54.541Z,98.85
2022-11-16T01:46:21.795Z,98.84
2022-11-16T01:48:52.170Z,98.98
2022-11-16T01:51:19.009Z,99.13
2022-11-16T01:53:45.598Z,99.21
2022-11-16T01:56:12.179Z,99.25
2022-11-16T01:58:38.859Z,99.26
2022-11-16T02:01:05.673Z,99.27
2022-11-16T02:03:32.239Z,99.26
2022-11-16T02:06:26.131Z,99.32
2022-11-16T02:09:30.272Z,99.40
2022-11-16T02:12:02.495Z,99.44
2022-11-16T02:14:48.930Z,99.56
2022-11-16T02:17:43.007Z,99.57
2022-11-16T02:20:44.042Z,99.59
2022-11-16T02:23:29.470Z,99.58
2022-11-16T02:26:23.875Z,99.63
2022-11-16T02:29:07.292Z,99.60
2022-11-16T02:31:40.868Z,99.51
2022-11-16T02:34:10.546Z,99.58
2022-11-16T02:36:39.960Z,99.58
2022-11-16T02:39:14.972Z,99.60
2022-11-16T02:41:44.242Z,99.66
2022-11-16T02:44:29.320Z,99.70
2022-11-16T02:47:00.852Z,99.67
2022-11-16T02:49:30.262Z,99.67
2022-11-16T02:51:58.492Z,99.68
2022-11-16T02:54:28.216Z,99.69
2022-11-16T02:57:14.269Z,99.75
2022-11-16T02:59:48.826Z,99.75
2022-11-16T03:02:27.094Z,99.71
2022-11-16T03:05:06.807Z,99.73
2022-11-16T03:07:39.830Z,99.76
2022-11-16T03:10:07.006Z,99.75
2022-11-16T03:12:36.123Z,99.78
2022-11-16T03:15:09.946Z,99.71
2022-11-16T03:17:44.901Z,99.63
2022-11-16T03:20:27.098Z,99.58
2022-11-16T03:23:04.163Z,99.57
2022-11-16T03:25:36.110Z,99.48
2022-11-16T03:28:09.468Z,99.44
2022-11-16T03:30:42.484Z,99.46
2022-11-16T03:33:13.217Z,99.47
2022-11-16T03:36:04.788Z,99.48
2022-11-16T03:38:34.200Z,99.50
2022-11-16T03:41:04.091Z,99.51
2022-11-16T03:43:31.611Z,99.54
2022-11-16T03:45:58.258Z,99.46
2022-11-16T03:48:25.276Z,99.48
2022-11-16T03:50:53.124Z,99.56
2022-11-16T03:53:19.565Z,99.64
2022-11-16T03:55:49.784Z,99.64
2022-11-16T03:58:18.724Z,99.62
2022-11-16T04:00:45.563Z,99.65
2022-11-16T04:03:12.023Z,99.67
2022-11-16T04:05:57.117Z,99.64
2022-11-16T04:08:42.143Z,99.67
2022-11-16T04:11:32.278Z,99.64
2022-11-16T04:14:17.582Z,99.68
2022-11-16T04:17:02.656Z,99.67
2022-11-16T04:19:47.609Z,99.68
2022-11-16T04:22:40.149Z,99.69
2022-11-16T04:25:18.361Z,99.71
2022-11-16T04:28:03.302Z,99.77
2022-11-16T04:30:49.910Z,99.83
2022-11-16T04:33:35.243Z,99.85
2022-11-16T04:36:20.903Z,99.79
2022-11-16T04:38:47.440Z,99.79
2022-11-16T04:41:33.914Z,99.75
2022-11-16T04:44:00.541Z,99.56
2022-11-16T04:46:46.004Z,99.57
2022-11-16T04:49:12.773Z,99.71
2022-11-16T04:51:39.364Z,99.79
2022-11-16T04:54:05.947Z,99.77
2022-11-16T04:56:32.453Z,99.84
2022-11-16T04:58:59.020Z,99.83
2022-11-16T05:01:45.628Z,99.83
2022-11-16T05:04:12.497Z,99.77
2022-11-16T05:06:39.386Z,99.69
2022-11-16T05:09:05.952Z,99.35
2022-11-16T05:11:32.645Z,99.01
2022-11-16T05:13:59.119Z,98.63
2022-11-16T05:16:25.575Z,98.17
2022-11-16T05:19:10.474Z,98.20
2022-11-16T05:21:37.050Z,98.33
2022-11-16T05:24:22.889Z,98.33
2022-11-16T05:26:49.345Z,98.38
2022-11-16T05:29:15.863Z,98.42
2022-11-16T05:31:42.352Z,98.61
2022-11-16T05:34:09.730Z,98.75
2022-11-16T05:36:36.229Z,98.93
2022-11-16T05:39:03.428Z,98.98
2022-11-16T05:41:30.395Z,99.06
2022-11-16T05:43:56.912Z,99.15
2022-11-16T05:46:24.243Z,99.23
2022-11-16T05:48:51.536Z,99.25
2022-11-16T05:51:18.058Z,99.23
2022-11-16T05:53:44.695Z,99.27
2022-11-16T05:56:14.343Z,99.36
2022-11-16T05:58:41.245Z,99.31
2022-11-16T06:01:08.076Z,99.39
2022-11-16T06:03:36.405Z,99.37
2022-11-16T06:06:05.012Z,99.40
2022-11-16T06:08:32.350Z,99.45
2022-11-16T06:11:07.869Z,99.49
2022-11-16T06:13:35.185Z,99.56
2022-11-16T06:16:02.997Z,99.54
2022-11-16T06:18:29.823Z,99.54
2022-11-16T06:20:56.478Z,99.43
2022-11-16T06:23:23.191Z,98.99
2022-11-16T06:25:54.942Z,98.68
2022-11-16T06:28:22.119Z,98.06
2022-11-16T06:30:49.423Z,97.89
2022-11-16T06:33:16.731Z,97.91
2022-11-16T06:35:43.690Z,97.69
2022-11-16T06:38:10.468Z,97.22
2022-11-16T06:40:38.076Z,97.11
2022-11-16T06:43:04.602Z,97.02
2022-11-16T06:45:31.129Z,95.95
2022-11-16T06:47:57.671Z,94.80
2022-11-16T06:50:24.178Z,94.77
2022-11-16T06:52:50.894Z,94.50
2022-11-16T06:55:17.588Z,94.79
2022-11-16T06:57:44.045Z,94.31
2022-11-16T07:00:11.399Z,94.15
2022-11-16T07:02:38.802Z,94.00
2022-11-16T07:05:07.201Z,93.59
2022-11-16T07:07:34.067Z,94.02
2022-11-16T07:10:00.591Z,93.04
2022-11-16T07:12:27.365Z,93.16
2022-11-16T07:14:53.980Z,93.72
2022-11-16T07:17:20.449Z,92.86
2022-11-16T07:19:46.898Z,93.68
2022-11-16T07:22:13.388Z,93.93
2022-11-16T07:24:39.856Z,93.16
2022-11-16T07:27:08.231Z,93.43
2022-11-16T07:33:40.343Z,94.01
2022-11-16T07:36:12.169Z,92.11
2022-11-16T07:38:39.290Z,91.25
2022-11-16T07:41:09.369Z,90.49
2022-11-16T07:43:36.686Z,88.60
2022-11-16T07:46:44.779Z,87.77
2022-11-16T07:48:55.104Z,87.45
2022-11-16T07:51:21.572Z,87.93
2022-11-16T07:53:48.023Z,87.68
2022-11-16T07:56:14.556Z,87.73
2022-11-16T07:58:41.015Z,87.52
2022-11-16T08:01:12.089Z,85.73
2022-11-16T08:03:39.725Z,84.07
2022-11-16T08:06:18.584Z,83.67
2022-11-16T08:08:45.233Z,83.55
2022-11-16T08:11:12.835Z,85.12
2022-11-16T08:13:41.027Z,85.46
2022-11-16T08:16:11.131Z,86.23
2022-11-16T08:18:39.255Z,84.81
2022-11-16T08:21:07.919Z,82.53
2022-11-16T08:23:35.024Z,81.94
2022-11-16T08:26:10.451Z,80.45
2022-11-16T08:28:37.925Z,80.21
2022-11-16T08:31:09.727Z,80.10
2022-11-16T08:33:36.180Z,80.53
2022-11-16T08:36:13.615Z,80.62
2022-11-16T08:38:40.733Z,80.54
2022-11-16T08:41:07.865Z,81.27
2022-11-16T08:43:35.973Z,80.90
2022-11-16T08:46:03.285Z,80.52
2022-11-16T08:48:29.900Z,80.17
2022-11-16T08:51:18.862Z,79.76
2022-11-16T08:53:48.409Z,80.82
2022-11-16T08:56:18.713Z,81.41
2022-11-16T08:58:52.511Z,81.40
2022-11-16T09:01:24.553Z,81.54
2022-11-16T09:03:52.800Z,80.58
2022-11-16T09:06:19.691Z,77.88
2022-11-16T09:08:46.754Z,75.59
2022-11-16T09:11:18.349Z,76.78
2022-11-16T09:13:47.022Z,79.07
2022-11-16T09:16:16.764Z,80.16
2022-11-16T09:18:46.681Z,80.42
2022-11-16T09:21:27.406Z,80.75
2022-11-16T09:23:55.024Z,81.06
2022-11-16T09:26:23.287Z,81.12
2022-11-16T09:29:04.157Z,80.64
2022-11-16T09:31:34.790Z,78.59
2022-11-16T09:34:01.398Z,77.29
2022-11-16T09:36:28.680Z,78.24
2022-11-16T09:39:29.595Z,79.07
2022-11-16T09:42:04.552Z,79.82
2022-11-16T09:44:37.922Z,80.34
2022-11-16T09:47:09.697Z,79.04
2022-11-16T09:49:40.810Z,76.95
2022-11-16T09:52:12.980Z,73.90
2022-11-16T09:54:42.925Z,71.91
2022-11-16T09:57:12.909Z,70.68
2022-11-16T09:59:49.725Z,67.97
2022-11-16T10:02:38.924Z,66.73
2022-11-16T10:05:22.111Z,65.85
2022-11-16T10:07:54.888Z,66.11
2022-11-16T10:10:38.019Z,65.33
2022-11-16T10:13:26.886Z,65.09
2022-11-16T10:15:58.012Z,62.71
2022-11-16T10:18:47.161Z,63.17
2022-11-16T10:21:37.443Z,63.82
2022-11-16T10:24:30.559Z,63.71
2022-11-16T10:27:21.851Z,65.54
2022-11-16T10:29:54.664Z,64.55
2022-11-16T10:32:32.358Z,64.28
2022-11-16T10:35:13.070Z,64.20
2022-11-16T10:37:45.463Z,62.53
2022-11-16T10:40:38.723Z,62.44
2022-11-16T10:43:18.698Z,62.66
2022-11-16T10:45:57.937Z,61.42
2022-11-16T10:48:47.936Z,61.43
2022-11-16T10:51:14.510Z,60.56
2022-11-16T10:53:46.230Z,61.90
2022-11-16T10:56:30.144Z,63.19
2022-11-16T10:59:02.083Z,63.55
2022-11-16T11:01:42.412Z,63.53
2022-11-16T11:04:15.234Z,62.25
2022-11-16T11:06:43.206Z,61.64
2022-11-16T11:09:31.134Z,60.90
2022-11-16T11:12:38.178Z,62.16
2022-11-16T11:15:10.619Z,61.82
2022-11-16T11:17:47.389Z,60.70
2022-11-16T11:20:17.039Z,60.89
2022-11-16T11:22:56.700Z,61.88
2022-11-16T11:25:23.337Z,62.81
2022-11-16T11:27:52.583Z,63.76
2022-11-16T11:30:21.150Z,63.35
2022-11-16T11:32:48.744Z,64.10
2022-11-16T11:35:32.325Z,63.09
2022-11-16T11:38:07.641Z,63.84
2022-11-16T11:40:34.744Z,62.86
2022-11-16T11:43:04.817Z,62.66
2022-11-16T11:46:12.160Z,61.83
2022-11-16T11:49:00.064Z,62.33
2022-11-16T11:51:35.153Z,63.22
2022-11-16T11:54:04.928Z,64.33
2022-11-16T11:56:33.257Z,63.41
2022-11-16T11:59:00.595Z,64.79
2022-11-16T12:01:57.514Z,64.32
2022-11-16T12:04:29.847Z,61.65
2022-11-16T12:07:19.336Z,62.59
2022-11-16T12:09:50.793Z,62.74
2022-11-16T12:12:51.040Z,62.81
2022-11-16T12:16:02.086Z,63.64
2022-11-16T12:18:28.515Z,63.64
2022-11-16T12:21:14.562Z,63.05
2022-11-16T12:23:59.988Z,62.72
2022-11-16T12:26:59.993Z,61.49
2022-11-16T12:29:26.976Z,60.42
2022-11-16T12:32:21.989Z,60.17
2022-11-16T12:34:48.402Z,59.80
2022-11-16T12:37:35.511Z,62.38
2022-11-16T12:40:12.073Z,64.96
2022-11-16T12:42:53.601Z,66.05
2022-11-16T12:45:50.427Z,66.32
2022-11-16T12:48:49.767Z,65.52
2022-11-16T12:51:34.531Z,64.55
2022-11-16T12:54:26.267Z,62.87
2022-11-16T12:57:16.792Z,63.04
2022-11-16T13:00:07.173Z,62.62
2022-11-16T13:03:01.899Z,63.38
2022-11-16T13:05:40.996Z,65.44
2022-11-16T13:08:43.066Z,64.00
2022-11-16T13:11:18.101Z,62.24
2022-11-16T13:13:52.769Z,61.53
2022-11-16T13:16:21.240Z,60.39
2022-11-16T13:18:48.137Z,61.74
2022-11-16T13:21:29.981Z,63.88
2022-11-16T13:24:26.915Z,64.80
2022-11-16T13:27:25.382Z,65.38
2022-11-16T13:29:58.250Z,66.12
2022-11-16T13:32:43.060Z,67.20
2022-11-16T13:35:15.795Z,67.57
2022-11-16T13:37:46.924Z,67.66
2022-11-16T13:40:27.237Z,67.96
2022-11-16T13:43:17.672Z,67.78
2022-11-16T13:45:49.918Z,68.66
2022-11-16T13:48:18.288Z,69.22
2022-11-16T13:50:51.991Z,69.73
2022-11-16T13:56:28.986Z,67.56
2022-11-16T13:58:57.529Z,66.25
2022-11-16T14:01:24.180Z,64.89
2022-11-16T14:03:52.567Z,66.50
2022-11-16T14:06:19.037Z,67.46
2022-11-16T14:08:48.820Z,68.27
2022-11-16T14:11:32.127Z,69.13
2022-11-16T14:14:01.521Z,69.88
2022-11-16T14:16:29.117Z,70.35
2022-11-16T14:18:58.561Z,70.34
2022-11-16T14:21:53.625Z,70.39
2022-11-16T14:24:33.945Z,70.93
2022-11-16T14:27:30.285Z,71.23
2022-11-16T14:30:02.544Z,71.40
2022-11-16T14:32:35.868Z,71.82
2022-11-16T14:35:26.811Z,71.93
2022-11-16T14:38:02.822Z,72.07
2022-11-16T14:40:43.150Z,72.52
2022-11-16T14:43:18.229Z,73.29
2022-11-16T14:45:49.008Z,73.11
2022-11-16T14:48:18.069Z,72.88
2022-11-16T14:51:07.223Z,72.86
2022-11-16T14:53:38.169Z,72.63
2022-11-16T14:56:10.904Z,72.68
2022-11-16T14:58:38.105Z,72.81
2022-11-16T15:01:14.202Z,72.68
2022-11-16T15:04:04.603Z,73.37
2022-11-16T15:06:40.407Z,73.67
2022-11-16T15:09:07.369Z,73.93
2022-11-16T15:11:57.498Z,74.21
2022-11-16T15:14:33.230Z,73.98
2022-11-16T15:17:00.375Z,74.29
2022-11-16T15:19:30.496Z,74.86
2022-11-16T15:21:59.970Z,74.94
2022-11-16T15:24:34.360Z,75.01
2022-11-16T15:27:06.876Z,75.06
2022-11-16T15:29:33.437Z,75.43
2022-11-16T15:31:59.987Z,75.60
2022-11-16T15:34:26.828Z,75.95
2022-11-16T15:36:53.458Z,76.02
2022-11-16T15:39:23.276Z,76.13
2022-11-16T15:41:50.995Z,76.44
2022-11-16T15:44:20.352Z,76.62
2022-11-16T15:46:53.415Z,77.05
2022-11-16T15:49:34.314Z,77.08
2022-11-16T15:52:01.594Z,77.11
2022-11-16T15:54:31.097Z,77.80
2022-11-16T15:57:08.031Z,77.90
2022-11-16T15:59:37.107Z,78.41
2022-11-16T16:02:04.273Z,78.67
2022-11-16T16:04:31.159Z,79.02
2022-11-16T16:06:59.755Z,79.28
2022-11-16T16:09:33.523Z,79.51
2022-11-16T16:12:19.604Z,79.68
2022-11-16T16:14:48.583Z,80.05
2022-11-16T16:17:24.466Z,80.35
2022-11-16T16:19:59.714Z,80.52
2022-11-16T16:22:29.644Z,80.98
2022-11-16T16:24:57.925Z,81.10
2022-11-16T16:27:27.096Z,81.31
2022-11-16T16:29:55.227Z,81.54
2022-11-16T16:32:24.632Z,81.71
2022-11-16T16:34:52.371Z,81.79
2022-11-16T16:37:18.929Z,82.13
2022-11-16T16:39:45.642Z,82.31
2022-11-16T16:42:14.496Z,82.59
2022-11-16T16:44:43.639Z,82.73
2022-11-16T16:47:10.569Z,82.95
2022-11-16T16:49:37.764Z,83.25
2022-11-16T16:52:05.322Z,82.85
2022-11-16T16:54:31.888Z,83.13
2022-11-16T16:57:01.290Z,83.16
2022-11-16T16:59:29.982Z,83.25
2022-11-16T17:01:57.587Z,83.48
2022-11-16T17:04:24.580Z,83.27
2022-11-16T17:06:52.248Z,83.50
2022-11-16T17:09:18.919Z,83.75
2022-11-16T17:11:46.881Z,83.58
2022-11-16T17:14:13.268Z,83.65
2022-11-16T17:16:40.270Z,83.29
2022-11-16T17:19:06.806Z,83.41
2022-11-16T17:21:33.356Z,83.56
2022-11-16T17:23:59.908Z,83.74
2022-11-16T17:26:29.426Z,83.98
2022-11-16T17:28:57.590Z,84.01
2022-11-16T17:31:25.431Z,84.12
2022-11-16T17:33:52.636Z,84.27
2022-11-16T17:36:19.446Z,84.48
2022-11-16T17:38:46.155Z,84.67
2022-11-16T17:41:13.834Z,84.77
2022-11-16T17:43:41.823Z,85.03
2022-11-16T17:46:17.003Z,85.02
2022-11-16T17:48:45.425Z,85.34
2022-11-16T17:51:13.041Z,85.38
2022-11-16T17:53:40.738Z,85.48
2022-11-16T18:05:01.827Z,86.00
2022-11-16T18:07:30.212Z,86.17
2022-11-16T18:09:57.231Z,86.30
2022-11-16T18:12:23.862Z,86.43
2022-11-16T18:15:06.708Z,86.72
2022-11-16T18:17:37.032Z,86.77
2022-11-16T18:20:04.885Z,86.89
2022-11-16T18:22:31.441Z,86.96
2022-11-16T18:24:58.416Z,87.06
2022-11-16T18:27:25.161Z,87.20
2022-11-16T18:29:51.852Z,87.09
2022-11-16T18:32:18.518Z,86.90
2022-11-16T18:34:45.092Z,87.08
2022-11-16T18:37:11.671Z,87.05
2022-11-16T18:39:38.271Z,87.12
2022-11-16T18:42:04.968Z,87.22
2022-11-16T18:44:31.584Z,87.18
2022-11-16T18:46:58.236Z,87.28
2022-11-16T18:49:24.920Z,87.46
2022-11-16T18:51:51.453Z,87.43
2022-11-16T19:01:27.406Z,87.54
2022-11-16T19:03:55.548Z,87.81
2022-11-16T19:09:06.250Z,87.52
2022-11-16T19:14:13.460Z,87.50
2022-11-16T19:19:22.155Z,87.42
2022-11-16T19:24:29.403Z,87.29
2022-11-16T19:26:57.183Z,87.33
2022-11-16T19:32:04.364Z,87.00
2022-11-16T19:37:11.360Z,86.72
2022-11-16T19:39:37.878Z,86.74
2022-11-16T19:42:12.054Z,86.72
2022-11-16T19:44:38.665Z,86.52
2022-11-16T19:47:06.345Z,86.39
2022-11-16T19:49:42.101Z,86.36
2022-11-16T19:52:09.842Z,86.20
2022-11-16T19:57:20.528Z,86.21
2022-11-16T20:02:28.152Z,86.43
2022-11-16T20:05:18.520Z,86.24
2022-11-16T20:07:45.107Z,86.25
2022-11-16T20:10:12.830Z,86.24
2022-11-16T20:12:39.280Z,86.28
2022-11-16T20:15:07.413Z,86.23
2022-11-16T20:20:20.217Z,86.00
2022-11-16T20:22:50.788Z,85.76
2022-11-16T20:25:17.756Z,85.90
2022-11-16T20:27:44.319Z,85.81
2022-11-16T20:32:51.931Z,85.50
2022-11-16T20:38:00.430Z,85.53
2022-11-16T20:40:26.968Z,85.53
2022-11-16T20:42:57.847Z,85.53
2022-11-16T20:45:24.760Z,85.26
2022-11-16T20:47:51.213Z,85.42
2022-11-16T20:53:00.001Z,85.12
2022-11-16T20:55:26.525Z,85.20
2022-11-16T20:57:53.001Z,85.39
2022-11-16T21:00:19.735Z,85.37
2022-11-16T21:02:47.656Z,85.45
2022-11-16T21:05:14.135Z,85.49
2022-11-16T21:07:41.828Z,85.50
2022-11-16T21:10:18.645Z,85.60
2022-11-16T21:18:33.845Z,85.68
2022-11-16T21:23:51.683Z,86.05
2022-11-16T21:26:38.392Z,86.09
2022-11-16T21:29:05.414Z,86.04
2022-11-16T21:31:34.627Z,85.77
2022-11-16T21:34:10.006Z,85.89
2022-11-16T21:36:36.640Z,86.14
2022-11-16T21:39:03.514Z,86.08
2022-11-16T21:41:38.235Z,86.01
2022-11-16T21:44:04.918Z,85.92
2022-11-16T21:46:33.874Z,85.97
2022-11-16T21:49:03.523Z,85.95
2022-11-16T21:51:33.705Z,85.93
2022-11-16T21:54:00.369Z,85.97
2022-11-16T21:59:07.274Z,86.03
2022-11-16T22:01:53.828Z,86.10
2022-11-16T22:04:39.145Z,86.06
2022-11-16T22:07:31.672Z,86.10
2022-11-16T22:09:59.633Z,86.46
2022-11-16T22:12:28.683Z,86.63
2022-11-16T22:14:55.876Z,87.26
2022-11-16T22:17:22.757Z,87.64
2022-11-16T22:19:49.327Z,87.83
2022-11-16T22:22:16.052Z,88.47
2022-11-16T22:24:43.354Z,89.23
2022-11-16T22:27:09.944Z,89.64
2022-11-16T22:29:36.427Z,89.76
2022-11-16T22:32:03.129Z,90.25
2022-11-16T22:37:15.621Z,90.85
2022-11-16T22:42:22.715Z,91.21
2022-11-16T22:44:49.169Z,91.63
2022-11-16T22:47:23.182Z,92.12
2022-11-16T22:49:50.166Z,92.40
2022-11-16T22:54:59.360Z,93.25
2022-11-16T22:57:25.826Z,93.36
2022-11-16T23:02:33.760Z,93.69
2022-11-16T23:07:43.861Z,93.84
2022-11-16T23:15:50.004Z,94.62
2022-11-16T23:18:18.124Z,94.74
2022-11-16T23:21:03.347Z,94.42
2022-11-16T23:23:48.543Z,94.88
2022-11-16T23:26:41.131Z,94.61
2022-11-16T23:29:11.180Z,94.77
2022-11-16T23:31:38.215Z,94.70
2022-11-16T23:34:08.911Z,94.73
2022-11-16T23:36:35.445Z,94.58
2022-11-16T23:39:02.314Z,94.55
2022-11-16T23:41:48.092Z,94.59
2022-11-16T23:44:14.600Z,94.75
2022-11-16T23:49:21.415Z,94.81
2022-11-16T23:54:28.595Z,94.44
2022-11-16T23:56:55.106Z,94.46
